Time;durP1;ratioP1;P1;durP2;ratioP2;P2;SDS_P1;SDS_P2;PMS_P1;PMS_P2;Temp;Humidity;BMP_temperature;BMP_pressure;BME280_temperature;BME280_humidity;BME280_pressure;Samples;Min_cycle;Max_cycle;Signal;HPM_P1;HPM_P2
2023/01/16 00:02:17;;;;;;;0.73;0.10;;;;;;;8.51;100.00;99291.91;5003808;28;20050;-79
2023/01/16 00:04:47;;;;;;;0.45;0.20;;;;;;;8.50;100.00;99293.66;5005830;28;20492;-80
2023/01/16 00:07:16;;;;;;;0.20;0.03;;;;;;;8.54;100.00;99308.31;5007030;28;20049;-79
2023/01/16 00:09:44;;;;;;;0.00;0.00;;;;;;;8.50;100.00;99306.53;5004847;28;20128;-80
2023/01/16 00:12:13;;;;;;;0.30;0.20;;;;;;;8.54;100.00;99303.16;5005997;28;20060;-83
2023/01/16 00:14:41;;;;;;;0.75;0.40;;;;;;;8.51;100.00;99320.28;5006723;28;20046;-84
2023/01/16 00:17:10;;;;;;;2.35;0.10;;;;;;;8.50;100.00;99314.25;5008496;28;20480;-82
2023/01/16 00:19:38;;;;;;;0.60;0.20;;;;;;;8.49;100.00;99321.97;5009388;28;20045;-83
2023/01/16 00:22:08;;;;;;;5.00;0.45;;;;;;;8.53;100.00;99327.19;5003339;28;20127;-81
2023/01/16 00:24:37;;;;;;;2.08;0.15;;;;;;;8.54;100.00;99338.34;5007164;28;20177;-82
2023/01/16 00:27:06;;;;;;;0.77;0.10;;;;;;;8.54;100.00;99338.34;5008912;28;20042;-85
2023/01/16 00:29:34;;;;;;;0.35;0.10;;;;;;;8.48;100.00;99339.16;5003696;28;20054;-81
2023/01/16 00:32:03;;;;;;;0.20;0.10;;;;;;;8.53;100.00;99347.81;5009043;28;20050;-86
2023/01/16 00:34:31;;;;;;;0.10;0.10;;;;;;;8.56;100.00;99358.16;5003674;28;20056;-82
2023/01/16 00:37:00;;;;;;;0.15;0.15;;;;;;;8.53;100.00;99358.13;5003688;28;20053;-81
2023/01/16 00:39:30;;;;;;;0.30;0.10;;;;;;;8.49;100.00;99361.50;4999083;28;20064;-85
2023/01/16 00:41:59;;;;;;;0.73;0.08;;;;;;;8.51;100.00;99370.13;5006938;28;20061;-83
2023/01/16 00:44:27;;;;;;;0.38;0.17;;;;;;;8.50;100.00;99375.28;5004735;28;20037;-82
2023/01/16 00:46:56;;;;;;;0.15;0.00;;;;;;;8.49;100.00;99371.81;5003924;28;20581;-80
2023/01/16 00:49:24;;;;;;;1.20;0.05;;;;;;;8.50;100.00;99376.13;5006071;28;20589;-85
2023/01/16 00:51:54;;;;;;;0.77;0.10;;;;;;;8.44;100.00;99377.75;5008945;28;20042;-82
2023/01/16 00:54:23;;;;;;;0.35;0.30;;;;;;;8.45;100.00;99380.31;5009408;28;20091;-83
2023/01/16 00:56:53;;;;;;;0.17;0.10;;;;;;;8.48;100.00;99384.69;5006298;28;20061;-81
2023/01/16 00:59:21;;;;;;;0.10;0.00;;;;;;;8.44;100.00;99375.16;5006486;28;20429;-83
2023/01/16 01:01:50;;;;;;;0.00;0.00;;;;;;;8.44;100.00;99390.63;5014894;28;20116;-82
2023/01/16 01:04:18;;;;;;;1.02;0.30;;;;;;;8.47;100.00;99388.94;5017616;28;20046;-81
2023/01/16 01:06:47;;;;;;;0.00;0.00;;;;;;;8.41;100.00;99393.13;5015198;28;20053;-81
2023/01/16 01:09:16;;;;;;;0.10;0.10;;;;;;;8.39;100.00;99388.81;5010808;28;20060;-79
2023/01/16 01:11:44;;;;;;;0.60;0.17;;;;;;;8.35;100.00;99389.59;5013312;28;20582;-79
2023/01/16 01:14:15;;;;;;;1.10;0.15;;;;;;;8.33;100.00;99395.56;5010797;28;20479;-79
2023/01/16 01:16:43;;;;;;;1.40;0.20;;;;;;;8.35;100.00;99405.06;5010252;28;20088;-80
2023/01/16 01:19:12;;;;;;;0.13;0.08;;;;;;;8.36;100.00;99400.75;5013062;28;20038;-77
2023/01/16 01:21:41;;;;;;;1.48;0.20;;;;;;;8.33;100.00;99406.75;5009811;28;20041;-82
2023/01/16 01:24:10;;;;;;;0.55;0.10;;;;;;;8.31;100.00;99407.56;5010879;28;20146;-78
2023/01/16 01:26:39;;;;;;;0.13;0.10;;;;;;;8.30;100.00;99422.16;5006793;28;20602;-79
2023/01/16 01:29:08;;;;;;;0.25;0.10;;;;;;;8.28;100.00;99429.00;5008095;28;20049;-77
2023/01/16 01:31:38;;;;;;;0.73;0.00;;;;;;;8.28;100.00;99422.97;5004729;28;20061;-82
2023/01/16 01:34:07;;;;;;;2.50;0.28;;;;;;;8.29;100.00;99429.84;5008773;28;20053;-79
2023/01/16 01:36:35;;;;;;;0.65;0.20;;;;;;;8.31;100.00;99433.34;5010832;28;20132;-80
2023/01/16 01:39:03;;;;;;;0.40;0.13;;;;;;;8.33;100.00;99437.66;5012379;28;20049;-79
2023/01/16 01:41:32;;;;;;;0.20;0.20;;;;;;;8.34;100.00;99443.72;5010637;28;20059;-76
2023/01/16 01:44:01;;;;;;;1.40;0.13;;;;;;;8.37;100.00;99454.94;5009634;28;20061;-76
2023/01/16 01:46:38;;;;;;;0.95;0.40;;;;;;;8.40;100.00;99456.72;5003445;28;20046;-80
2023/01/16 01:49:15;;;;;;;1.05;0.40;;;;;;;8.42;100.00;99456.75;5007888;28;20042;-80
2023/01/16 01:51:45;;;;;;;1.02;0.30;;;;;;;8.44;100.00;99460.22;5007010;28;20050;-81
2023/01/16 01:54:17;;;;;;;0.20;0.10;;;;;;;8.47;100.00;99461.13;5011084;28;20070;-87
2023/01/16 01:56:50;;;;;;;1.90;0.27;;;;;;;8.48;100.00;99470.63;5011337;28;20542;-81
2023/01/16 01:59:23;;;;;;;0.10;0.10;;;;;;;8.53;100.00;99466.41;5010423;28;20046;-80
2023/01/16 02:01:52;;;;;;;0.47;0.10;;;;;;;8.54;100.00;99468.16;5009363;28;20184;-82
2023/01/16 02:04:27;;;;;;;0.30;0.10;;;;;;;8.52;100.00;99472.41;5006687;28;20052;-83
2023/01/16 02:06:59;;;;;;;0.32;0.10;;;;;;;8.55;100.00;99476.75;5008986;28;20042;-83
2023/01/16 02:09:28;;;;;;;1.65;0.50;;;;;;;8.57;100.00;99487.97;5013058;28;20042;-85
2023/01/16 02:12:01;;;;;;;0.80;0.20;;;;;;;8.59;100.00;99482.00;5011472;28;20056;-84
2023/01/16 02:14:30;;;;;;;;;;;;;;;8.60;100.00;99483.72;5014613;28;20062;-81
2023/01/16 02:20:00;;;;;;;0.93;0.55;;;;;;;8.68;100.00;99495.84;5010229;28;20088;-82
2023/01/16 02:23:09;;;;;;;0.15;0.10;;;;;;;8.70;100.00;99507.06;5009479;28;20046;-84
2023/01/16 02:26:17;;;;;;;0.70;0.47;;;;;;;8.71;100.00;99512.25;4950988;29;20044;-82
2023/01/16 02:29:20;;;;;;;0.13;0.13;;;;;;;8.73;100.00;99509.72;5007685;28;20109;-80
2023/01/16 02:31:57;;;;;;;0.13;0.10;;;;;;;8.78;100.00;99518.41;5009257;28;20451;-80
2023/01/16 02:34:51;;;;;;;2.10;0.30;;;;;;;8.79;100.00;99525.28;5015934;28;20084;-84
2023/01/16 02:37:30;;;;;;;1.55;0.20;;;;;;;8.80;100.00;99530.47;5014871;28;20054;-83
2023/01/16 02:40:12;;;;;;;0.03;0.03;;;;;;;8.80;100.00;99532.19;5014032;28;20516;-83
2023/01/16 02:42:46;;;;;;;2.00;0.30;;;;;;;8.81;100.00;99534.78;4985556;28;20046;-83
2023/01/16 02:45:28;;;;;;;0.60;0.20;;;;;;;8.79;100.00;99533.00;4980198;28;20069;-78
2023/01/16 02:48:05;;;;;;;0.83;0.27;;;;;;;8.75;100.00;99538.97;4978737;28;20066;-82
2023/01/16 02:50:41;;;;;;;0.10;0.10;;;;;;;8.72;100.00;99541.50;4976738;28;20059;-82
2023/01/16 02:53:16;;;;;;;0.35;0.15;;;;;;;8.69;100.00;99541.44;4976341;28;20042;-80
2023/01/16 02:55:48;;;;;;;1.42;0.32;;;;;;;8.66;100.00;99544.84;4987038;28;20050;-81
2023/01/16 02:58:19;;;;;;;0.70;0.38;;;;;;;8.64;100.00;99550.81;4989486;28;20046;-82
2023/01/16 03:00:55;;;;;;;1.75;0.30;;;;;;;8.62;100.00;99547.34;4989336;28;20046;-81
2023/01/16 03:03:43;;;;;;;1.90;0.30;;;;;;;8.60;100.00;99555.03;4981228;28;20053;-84
2023/01/16 03:06:33;;;;;;;2.70;0.40;;;;;;;8.59;100.00;99559.34;4979699;28;20457;-81
2023/01/16 03:09:17;;;;;;;3.35;0.50;;;;;;;8.57;100.00;99573.03;4987107;28;20042;-80
2023/01/16 03:11:58;;;;;;;1.83;0.52;;;;;;;8.53;100.00;99559.22;4983492;28;20050;-81
2023/01/16 03:14:37;;;;;;;0.30;0.25;;;;;;;8.56;100.00;99564.41;4980835;28;20066;-81
2023/01/16 03:17:27;;;;;;;1.08;0.38;;;;;;;8.54;100.00;99565.22;4988110;28;20054;-79
2023/01/16 03:20:11;;;;;;;1.15;0.43;;;;;;;8.51;100.00;99565.19;4979473;28;20054;-79
2023/01/16 03:22:45;;;;;;;2.55;0.50;;;;;;;8.42;100.00;99571.03;4985573;28;20548;-83
2023/01/16 03:25:23;;;;;;;2.33;0.43;;;;;;;8.40;100.00;99575.28;4980503;28;20061;-80
2023/01/16 03:28:00;;;;;;;5.82;0.40;;;;;;;8.32;100.00;99574.25;4989313;28;20050;-85
2023/01/16 03:30:37;;;;;;;1.00;0.63;;;;;;;8.30;100.00;99581.09;4980252;28;20127;-83
2023/01/16 03:33:11;;;;;;;2.17;0.50;;;;;;;8.28;100.00;99582.75;4981350;28;20046;-81
2023/01/16 03:35:48;;;;;;;1.58;0.22;;;;;;;8.27;100.00;99581.00;4979441;28;20058;-84
2023/01/16 03:38:20;;;;;;;0.47;0.30;;;;;;;8.15;100.00;99582.53;4981535;28;20050;-80
2023/01/16 03:40:50;;;;;;;0.93;0.30;;;;;;;8.17;100.00;99590.25;4991700;28;20050;-81
2023/01/16 03:43:30;;;;;;;0.70;0.50;;;;;;;8.15;100.00;99587.69;5005456;28;20579;-81
2023/01/16 03:46:05;;;;;;;1.42;0.50;;;;;;;8.11;100.00;99601.31;5008560;28;20613;-78
2023/01/16 03:48:43;;;;;;;2.97;0.57;;;;;;;8.11;100.00;99598.75;5008313;28;20053;-82
2023/01/16 03:51:20;;;;;;;4.00;0.50;;;;;;;8.15;100.00;99604.81;5004414;28;20616;-82
2023/01/16 03:53:55;;;;;;;1.23;0.50;;;;;;;8.15;100.00;99607.41;4995585;28;20732;-82
2023/01/16 03:56:30;;;;;;;3.33;0.57;;;;;;;8.10;100.00;99609.88;5006705;28;20057;-80
2023/01/16 03:58:59;;;;;;;3.72;0.28;;;;;;;8.12;100.00;99603.03;5003547;28;20050;-83
2023/01/16 04:01:38;;;;;;;0.85;0.45;;;;;;;8.11;100.00;99611.63;5008950;28;20069;-83
2023/01/16 04:04:09;;;;;;;1.88;0.60;;;;;;;8.04;100.00;99614.91;5010141;28;20523;-80
2023/01/16 04:06:47;;;;;;;2.05;0.60;;;;;;;7.97;100.00;99615.59;5009303;28;20072;-82
2023/01/16 04:09:23;;;;;;;3.15;0.50;;;;;;;8.03;100.00;99620.88;5003942;28;20046;-84
2023/01/16 04:11:54;;;;;;;2.88;0.47;;;;;;;8.05;100.00;99626.94;5007879;28;20046;-85
2023/01/16 04:14:26;;;;;;;4.80;0.57;;;;;;;8.02;100.00;99614.00;5005884;28;20632;-84
2023/01/16 04:16:55;;;;;;;0.80;0.40;;;;;;;8.11;100.00;99627.09;5006780;28;20057;-82
2023/01/16 04:19:25;;;;;;;2.13;0.57;;;;;;;8.08;100.00;99616.69;5005081;28;20054;-84
2023/01/16 04:21:56;;;;;;;1.25;0.30;;;;;;;7.99;100.00;99619.06;5007874;28;20558;-85
2023/01/16 04:24:25;;;;;;;1.55;0.50;;;;;;;8.01;100.00;99630.28;5010119;28;20451;-82
2023/01/16 04:26:54;;;;;;;3.75;0.82;;;;;;;8.01;100.00;99632.88;5007370;28;20033;-83
2023/01/16 04:29:22;;;;;;;1.27;0.52;;;;;;;7.94;100.00;99638.72;5005679;28;20050;-82
2023/01/16 04:31:51;;;;;;;1.35;0.55;;;;;;;7.97;100.00;99649.97;5006635;28;20050;-82
2023/01/16 04:34:19;;;;;;;2.67;0.80;;;;;;;7.98;100.00;99649.13;5004602;28;20049;-83
2023/01/16 04:36:48;;;;;;;4.47;0.70;;;;;;;7.93;100.00;99657.59;5004195;28;20702;-84
2023/01/16 04:39:18;;;;;;;1.80;0.88;;;;;;;7.92;100.00;99656.72;5006738;28;20046;-78
2023/01/16 04:41:50;;;;;;;3.10;0.45;;;;;;;7.90;100.00;99657.50;5008113;28;20070;-80
2023/01/16 04:44:19;;;;;;;1.48;0.60;;;;;;;7.86;100.00;99656.59;5007384;28;20050;-76
2023/01/16 04:46:48;;;;;;;3.08;0.50;;;;;;;7.87;100.00;99662.59;5002108;28;20050;-78
2023/01/16 04:49:17;;;;;;;2.28;0.68;;;;;;;7.89;100.00;99660.94;5002548;28;20050;-79
2023/01/16 04:51:45;;;;;;;4.38;0.73;;;;;;;7.91;100.00;99664.41;5004711;28;20696;-78
2023/01/16 04:54:18;;;;;;;2.58;0.52;;;;;;;7.90;100.00;99667.81;5003429;28;20057;-79
2023/01/16 04:56:48;;;;;;;0.30;0.30;;;;;;;7.87;100.00;99670.34;5005909;28;20092;-77
2023/01/16 04:59:17;;;;;;;1.38;0.50;;;;;;;7.84;100.00;99676.28;5003201;28;20050;-78
2023/01/16 05:01:46;;;;;;;1.55;0.55;;;;;;;7.85;100.00;99672.00;5008218;28;20476;-81
2023/01/16 05:04:17;;;;;;;0.45;0.22;;;;;;;7.86;100.00;99674.63;5006680;28;20049;-79
2023/01/16 05:06:46;;;;;;;2.20;0.55;;;;;;;7.89;100.00;99676.38;5003207;28;20042;-75
2023/01/16 05:09:14;;;;;;;2.22;0.50;;;;;;;7.89;100.00;99681.53;5006072;28;20061;-78
2023/01/16 05:11:45;;;;;;;2.88;0.40;;;;;;;7.86;100.00;99686.63;5007097;28;20050;-81
2023/01/16 05:14:13;;;;;;;1.85;0.65;;;;;;;7.87;100.00;99689.22;5010221;28;20042;-79
2023/01/16 05:16:42;;;;;;;1.25;0.73;;;;;;;7.87;100.00;99699.53;5003950;28;20053;-80
2023/01/16 05:19:11;;;;;;;2.10;0.60;;;;;;;7.88;100.00;99696.13;5000396;28;20077;-79
2023/01/16 05:21:40;;;;;;;1.13;0.57;;;;;;;7.92;100.00;99704.78;5005448;28;20057;-79
2023/01/16 05:24:10;;;;;;;1.40;0.70;;;;;;;7.94;100.00;99711.72;5003470;28;20403;-79
2023/01/16 05:26:38;;;;;;;0.80;0.50;;;;;;;7.97;100.00;99710.91;5005223;28;20042;-77
2023/01/16 05:29:09;;;;;;;1.23;0.70;;;;;;;7.98;100.00;99717.81;5003210;28;20082;-78
2023/01/16 05:31:37;;;;;;;1.38;0.57;;;;;;;7.98;100.00;99707.50;5006924;28;20058;-78
2023/01/16 05:34:06;;;;;;;1.80;0.70;;;;;;;7.97;100.00;99716.06;5004824;28;20052;-77
2023/01/16 05:37:15;;;;;;;4.05;0.63;;;;;;;7.97;100.00;99716.94;5008475;28;20054;-78
2023/01/16 05:39:44;;;;;;;2.30;0.85;;;;;;;7.99;100.00;99719.53;4986700;28;20079;-81
2023/01/16 05:42:20;;;;;;;2.22;0.52;;;;;;;7.99;100.00;99709.22;5005321;28;20042;-82
2023/01/16 05:44:51;;;;;;;0.90;0.40;;;;;;;7.91;100.00;99701.34;4993616;28;20038;-82
2023/01/16 05:47:20;;;;;;;0.80;0.40;;;;;;;7.98;100.00;99712.66;4995217;28;20492;-80
2023/01/16 05:49:49;;;;;;;0.93;0.55;;;;;;;7.99;100.00;99719.53;4994119;28;20043;-80
2023/01/16 05:52:17;;;;;;;2.15;0.50;;;;;;;8.00;100.00;99718.72;4994439;28;20456;-80
2023/01/16 05:54:46;;;;;;;3.42;0.73;;;;;;;8.03;100.00;99720.50;4993067;28;20049;-80
2023/01/16 05:57:14;;;;;;;0.90;0.30;;;;;;;8.01;100.00;99717.88;4993884;28;20601;-79
2023/01/16 05:59:45;;;;;;;1.15;0.20;;;;;;;7.98;100.00;99722.97;4996507;28;20125;-78
2023/01/16 06:02:15;;;;;;;3.20;0.40;;;;;;;8.00;100.00;99730.75;4992391;28;20046;-78
2023/01/16 06:04:44;;;;;;;3.17;0.68;;;;;;;8.02;100.00;99724.78;4987732;28;20042;-78
2023/01/16 06:07:13;;;;;;;0.73;0.38;;;;;;;8.02;100.00;99724.78;4991907;28;20058;-79
2023/01/16 06:09:42;;;;;;;0.70;0.43;;;;;;;8.01;100.00;99735.03;4990428;28;20060;-81
2023/01/16 06:12:15;;;;;;;0.40;0.20;;;;;;;8.02;100.00;99734.19;4992458;28;20050;-81
2023/01/16 06:14:44;;;;;;;1.85;0.65;;;;;;;8.01;100.00;99727.31;4989960;28;20401;-76
2023/01/16 06:17:15;;;;;;;3.13;0.32;;;;;;;8.00;100.00;99728.16;4991200;28;20436;-81
2023/01/16 06:19:45;;;;;;;2.92;0.65;;;;;;;7.98;100.00;99722.97;4990481;28;20049;-77
2023/01/16 06:22:14;;;;;;;1.63;0.40;;;;;;;7.99;100.00;99735.00;4989847;28;20043;-78
2023/01/16 06:24:49;;;;;;;2.17;0.63;;;;;;;7.97;100.00;99732.41;4991990;28;20570;-78
2023/01/16 06:27:17;;;;;;;2.97;0.40;;;;;;;7.99;100.00;99740.16;4989048;28;20057;-77
2023/01/16 06:29:46;;;;;;;1.95;0.88;;;;;;;7.99;100.00;99745.31;4991952;28;20049;-77
2023/01/16 06:32:17;;;;;;;3.30;0.85;;;;;;;7.97;100.00;99740.13;4990496;28;20038;-77
2023/01/16 06:34:46;;;;;;;2.20;0.40;;;;;;;7.97;100.00;99744.38;4988629;28;20145;-79
2023/01/16 06:37:14;;;;;;;3.13;0.50;;;;;;;7.98;100.00;99746.16;4990869;28;20532;-78
2023/01/16 06:39:43;;;;;;;3.05;0.38;;;;;;;7.96;100.00;99750.38;4989398;28;20065;-79
2023/01/16 06:42:11;;;;;;;1.27;0.45;;;;;;;7.95;100.00;99754.69;5004670;28;20062;-79
2023/01/16 06:44:40;;;;;;;1.55;0.32;;;;;;;7.95;100.00;99756.41;5007180;28;20062;-78
2023/01/16 06:47:08;;;;;;;2.72;0.68;;;;;;;7.95;100.00;99758.97;5008675;28;20054;-77
2023/01/16 06:49:39;;;;;;;0.43;0.40;;;;;;;7.90;100.00;99757.97;5005238;28;20054;-78
2023/01/16 06:52:07;;;;;;;1.55;0.40;;;;;;;7.89;100.00;99754.53;5003802;28;20038;-80
2023/01/16 06:54:36;;;;;;;3.40;0.57;;;;;;;7.87;100.00;99755.31;5004487;28;20415;-77
2023/01/16 06:57:04;;;;;;;3.65;0.77;;;;;;;7.85;100.00;99762.13;5008998;28;20064;-79
2023/01/16 06:59:33;;;;;;;1.42;0.50;;;;;;;7.83;100.00;99766.38;5007635;28;20061;-78
2023/01/16 07:02:02;;;;;;;1.83;0.68;;;;;;;7.80;100.00;99771.47;5008751;28;20073;-77
2023/01/16 07:04:30;;;;;;;0.90;0.55;;;;;;;7.78;100.00;99781.72;5005435;28;20054;-77
2023/01/16 07:07:01;;;;;;;2.97;0.50;;;;;;;7.73;100.00;99776.44;5007634;28;20706;-77
2023/01/16 07:09:30;;;;;;;5.90;0.80;;;;;;;7.72;100.00;99779.00;5007842;28;20041;-80
2023/01/16 07:11:58;;;;;;;2.55;0.63;;;;;;;7.69;100.00;99774.63;5009105;28;20082;-79
2023/01/16 07:22:45;;;;;;;1.20;0.50;;;;;;;7.59;100.00;99789.81;5008258;28;20060;-77
2023/01/16 07:25:17;;;;;;;1.15;0.38;;;;;;;7.55;100.00;99787.13;5007794;28;20053;-79
2023/01/16 07:27:49;;;;;;;1.27;0.40;;;;;;;7.53;100.00;99783.66;5007007;28;20050;-77
2023/01/16 07:30:18;;;;;;;2.80;0.50;;;;;;;7.51;100.00;99793.06;5009963;28;20046;-76
2023/01/16 07:32:48;;;;;;;5.05;0.50;;;;;;;7.50;100.00;99793.88;5007613;28;20053;-77
2023/01/16 07:35:16;;;;;;;0.35;0.30;;;;;;;7.42;100.00;99782.53;5006892;28;20046;-78
2023/01/16 07:37:47;;;;;;;0.98;0.40;;;;;;;7.53;100.00;99793.94;5007920;28;20057;-77
2023/01/16 07:40:16;;;;;;;1.63;1.05;;;;;;;7.55;100.00;99794.88;5005836;28;20169;-79
2023/01/16 07:42:44;;;;;;;1.75;0.68;;;;;;;7.56;100.00;99800.91;5010299;28;20464;-78
2023/01/16 07:45:13;;;;;;;1.70;0.50;;;;;;;7.53;100.00;99795.66;5008648;28;20053;-78
2023/01/16 07:47:41;;;;;;;1.00;0.40;;;;;;;7.52;100.00;99799.94;5006545;28;20045;-79
2023/01/16 07:50:11;;;;;;;4.65;0.85;;;;;;;7.53;100.00;99795.66;5007553;28;20116;-78
2023/01/16 07:52:40;;;;;;;1.52;0.50;;;;;;;7.57;100.00;99797.50;5003722;28;20054;-77
2023/01/16 07:55:10;;;;;;;1.85;0.55;;;;;;;7.57;100.00;99799.19;5008751;28;20038;-79
2023/01/16 07:57:40;;;;;;;3.33;0.63;;;;;;;7.59;100.00;99797.53;5006558;28;20065;-78
2023/01/16 08:00:11;;;;;;;1.27;0.75;;;;;;;7.62;100.00;99803.63;5006698;28;20495;-79
2023/01/16 08:02:40;;;;;;;5.28;0.60;;;;;;;7.62;100.00;99806.19;5003443;28;20136;-79
2023/01/16 08:05:10;;;;;;;4.22;0.50;;;;;;;7.65;100.00;99798.56;5008172;28;20045;-79
2023/01/16 08:07:39;;;;;;;1.77;0.77;;;;;;;7.68;100.00;99808.06;5006546;28;20093;-79
2023/01/16 08:10:10;;;;;;;2.03;0.50;;;;;;;7.67;100.00;99804.63;5004675;28;20632;-77
2023/01/16 08:12:40;;;;;;;1.83;0.80;;;;;;;7.67;100.00;99808.88;5004562;28;20034;-79
2023/01/16 08:15:09;;;;;;;2.90;0.57;;;;;;;7.67;100.00;99814.94;5007095;28;20117;-79
2023/01/16 08:17:41;;;;;;;1.73;0.60;;;;;;;7.69;100.00;99815.81;5008757;28;20057;-80
2023/01/16 08:20:10;;;;;;;6.72;0.55;;;;;;;7.69;100.00;99813.25;5003258;28;20077;-78
2023/01/16 08:22:44;;;;;;;0.98;0.30;;;;;;;7.68;100.00;99805.50;5004660;28;20129;-79
2023/01/16 08:25:16;;;;;;;2.20;0.60;;;;;;;7.67;100.00;99812.38;5006130;28;20096;-80
2023/01/16 08:27:45;;;;;;;4.82;1.27;;;;;;;7.64;100.00;99812.25;5006966;28;20050;-77
2023/01/16 08:30:15;;;;;;;0.70;0.60;;;;;;;7.60;100.00;99809.56;5005505;28;20046;-79
2023/01/16 08:32:44;;;;;;;1.75;0.63;;;;;;;7.62;100.00;99810.47;5006767;28;20057;-78
2023/01/16 08:35:12;;;;;;;0.50;0.40;;;;;;;7.60;100.00;99809.56;5002272;28;20053;-79
2023/01/16 08:37:48;;;;;;;2.22;0.73;;;;;;;7.58;100.00;99808.66;5005656;28;20056;-78
2023/01/16 08:40:19;;;;;;;2.67;0.50;;;;;;;7.57;100.00;99812.94;5005452;28;20108;-79
2023/01/16 08:51:26;;;;;;;2.15;0.45;;;;;;;7.44;100.00;99816.88;5006686;28;20086;-77
2023/01/16 08:53:56;;;;;;;2.50;0.70;;;;;;;7.39;100.00;99817.59;5008689;28;20096;-78
2023/01/16 08:56:26;;;;;;;0.63;0.40;;;;;;;7.37;100.00;99814.09;5008060;28;20054;-77
2023/01/16 08:58:55;;;;;;;0.40;0.30;;;;;;;7.36;100.00;99815.81;5006342;28;20041;-77
2023/01/16 09:01:25;;;;;;;1.65;0.30;;;;;;;7.31;100.00;99812.25;5010578;28;20050;-79
2023/01/16 09:03:54;;;;;;;1.52;0.60;;;;;;;7.29;100.00;99817.34;5007248;28;20049;-78
2023/01/16 09:06:22;;;;;;;0.47;0.35;;;;;;;7.27;100.00;99819.00;5006581;28;20071;-78
2023/01/16 09:08:51;;;;;;;4.13;0.43;;;;;;;7.26;100.00;99809.56;5006463;28;20061;-77
2023/01/16 09:14:08;;;;;;;1.83;0.32;;;;;;;7.25;100.00;99818.06;5009717;28;20048;-78
2023/01/16 09:16:36;;;;;;;;;;;;;;;7.25;100.00;99819.78;5010141;28;20054;-78
2023/01/16 09:19:05;;;;;;;0.77;0.20;;;;;;;7.24;100.00;99816.34;5010943;28;19937;-79
2023/01/16 09:21:33;;;;;;;2.17;0.47;;;;;;;7.24;100.00;99824.06;5010169;28;20050;-78
2023/01/16 09:24:02;;;;;;;3.08;0.52;;;;;;;7.23;100.00;99826.59;5011760;28;20050;-80
2023/01/16 09:26:31;;;;;;;0.75;0.35;;;;;;;7.20;100.00;99817.09;5007818;28;20081;-80
2023/01/16 09:29:00;;;;;;;0.73;0.70;;;;;;;7.20;100.00;99827.38;5009978;28;20045;-80
2023/01/16 09:31:30;;;;;;;0.95;0.45;;;;;;;7.19;100.00;99837.63;5008122;28;20045;-78
2023/01/16 09:33:59;;;;;;;1.05;0.47;;;;;;;7.17;100.00;99832.44;5009043;28;20042;-78
2023/01/16 09:36:27;;;;;;;2.40;0.50;;;;;;;7.16;100.00;99842.69;5011308;28;20459;-78
2023/01/16 09:38:56;;;;;;;2.33;0.63;;;;;;;7.13;100.00;99833.19;5008203;28;20049;-79
2023/01/16 09:44:15;;;;;;;0.95;0.65;;;;;;;7.03;100.00;99836.31;5011687;28;20423;-79
2023/01/16 09:46:49;;;;;;;0.97;0.40;;;;;;;7.02;100.00;99839.72;5011186;28;20132;-79
2023/01/16 09:49:22;;;;;;;4.18;0.50;;;;;;;7.03;100.00;99844.03;5003657;28;20284;-79
2023/01/16 10:00:23;;;;;;;2.83;0.28;;;;;;;6.99;100.00;99855.06;5003601;28;20104;-78
2023/01/16 10:02:54;;;;;;;2.70;0.30;;;;;;;6.94;100.00;99854.94;5008282;28;20671;-77
2023/01/16 10:05:26;;;;;;;1.60;0.85;;;;;;;6.89;100.00;99856.47;5009411;28;20129;-78
2023/01/16 10:08:05;;;;;;;1.42;0.43;;;;;;;6.85;100.00;99855.53;5010366;28;20050;-79
2023/01/16 10:10:49;;;;;;;0.50;0.25;;;;;;;6.87;100.00;99863.28;5008438;28;20054;-80
2023/01/16 10:13:45;;;;;;;3.80;0.52;;;;;;;6.86;100.00;99858.97;5011352;28;20049;-79
2023/01/16 10:16:24;;;;;;;3.50;0.35;;;;;;;6.86;100.00;99859.84;5009575;28;20054;-79
2023/01/16 10:19:03;;;;;;;0.65;0.40;;;;;;;6.84;100.00;99864.06;5007757;28;20050;-79
2023/01/16 10:22:09;;;;;;;7.20;0.80;;;;;;;6.84;100.00;99868.31;5008409;28;20053;-80
2023/01/16 10:24:49;;;;;;;0.82;0.40;;;;;;;6.84;100.00;99868.31;5010985;28;20079;-78
2023/01/16 10:27:23;;;;;;;1.77;0.30;;;;;;;6.79;100.00;99873.34;5009622;28;20050;-77
2023/01/16 10:29:56;;;;;;;2.92;0.63;;;;;;;6.75;100.00;99875.75;5013557;28;20057;-78
2023/01/16 10:32:28;;;;;;;;;;;;;;;6.71;100.00;99874.78;5010180;28;20050;-79
2023/01/16 10:35:05;;;;;;;0.82;0.30;;;;;;;6.70;100.00;99873.06;5008566;28;19925;-79
2023/01/16 10:37:37;;;;;;;4.25;0.57;;;;;;;6.68;100.00;99878.13;5007625;28;20046;-79
2023/01/16 10:40:16;;;;;;;4.78;0.63;;;;;;;6.69;100.00;99881.59;5007467;28;20074;-79
2023/01/16 10:51:10;;;;;;;0.68;0.40;;;;;;;6.62;100.00;99877.97;5011403;28;20049;-80
2023/01/16 10:53:40;;;;;;;2.15;0.63;;;;;;;6.58;100.00;99880.41;5010324;28;20821;-79
2023/01/16 10:56:09;;;;;;;5.85;0.60;;;;;;;6.56;100.00;99892.31;5008032;28;20054;-79
2023/01/16 10:58:40;;;;;;;3.95;0.63;;;;;;;6.54;100.00;99891.41;5006733;28;20061;-79
2023/01/16 11:01:14;;;;;;;4.85;0.50;;;;;;;6.54;100.00;99891.41;5005911;28;20045;-79
2023/01/16 11:03:45;;;;;;;0.73;0.40;;;;;;;6.52;100.00;99891.34;5005818;28;20526;-80
2023/01/16 11:06:19;;;;;;;2.05;0.60;;;;;;;6.48;100.00;99895.53;5007954;28;20077;-80
2023/01/16 11:08:50;;;;;;;1.27;0.50;;;;;;;6.39;100.00;99884.94;5006111;28;20057;-80
2023/01/16 11:20:00;;;;;;;2.88;1.23;;;;;;;6.28;100.00;99896.56;5005964;28;20061;-80
2023/01/16 11:22:30;;;;;;;6.00;1.58;;;;;;;6.26;100.00;99898.22;5005695;28;20116;-80
2023/01/16 11:25:00;;;;;;;4.63;1.50;;;;;;;6.25;100.00;99904.16;5009329;28;20538;-80
2023/01/16 11:27:32;;;;;;;3.28;1.30;;;;;;;6.22;100.00;99898.94;5007273;28;20056;-80
2023/01/16 11:30:06;;;;;;;1.73;0.85;;;;;;;6.19;100.00;99912.53;5008840;28;20050;-79
2023/01/16 11:32:47;;;;;;;3.33;0.80;;;;;;;6.15;100.00;99895.28;5005151;28;20050;-80
2023/01/16 11:35:17;;;;;;;3.45;0.90;;;;;;;6.14;100.00;99908.06;5006490;28;20046;-80
2023/01/16 11:37:52;;;;;;;3.00;1.10;;;;;;;6.07;100.00;99902.75;5002058;28;20057;-79
2023/01/16 11:40:24;;;;;;;2.75;0.80;;;;;;;6.04;100.00;99907.75;5004723;28;20053;-79
2023/01/16 11:46:03;;;;;;;6.70;1.00;;;;;;;5.97;100.00;99907.50;5006542;28;20072;-80
2023/01/16 11:48:38;;;;;;;2.97;1.08;;;;;;;5.93;100.00;99903.91;5009318;28;20054;-80
2023/01/16 11:51:12;;;;;;;2.08;1.10;;;;;;;5.90;100.00;99902.94;5005772;28;20506;-81
2023/01/16 11:53:44;;;;;;;1.67;0.93;;;;;;;5.85;100.00;99902.78;5007542;28;20961;-80
2023/01/16 11:56:49;;;;;;;3.13;0.88;;;;;;;5.78;100.00;99900.84;5004160;28;20058;-80
2023/01/16 11:59:46;;;;;;;0.70;0.70;;;;;;;5.73;100.00;99907.50;5005529;28;20605;-81
2023/01/16 12:02:30;;;;;;;3.55;1.08;;;;;;;5.67;100.00;99910.72;5006491;28;20048;-81
2023/01/16 12:08:10;;;;;;;0.93;0.60;;;;;;;5.58;100.00;99916.38;5005223;28;20056;-80
2023/01/16 12:10:49;;;;;;;1.65;0.70;;;;;;;5.49;100.00;99913.50;5006572;28;20042;-80
2023/01/16 12:16:22;;;;;;;0.90;0.73;;;;;;;5.31;100.00;99920.50;5001889;28;20120;-80
2023/01/16 12:19:03;;;;;;;1.30;0.60;;;;;;;5.29;100.00;99922.13;5002860;28;20076;-80
2023/01/16 12:21:36;;;;;;;1.20;0.80;;;;;;;5.25;100.00;99922.03;5005481;28;20050;-80
2023/01/16 12:24:31;;;;;;;1.05;0.75;;;;;;;5.22;100.00;99927.06;5004829;28;20623;-81
2023/01/16 12:27:14;;;;;;;2.17;0.73;;;;;;;5.19;100.00;99926.94;5007658;28;20053;-80
2023/01/16 12:29:56;;;;;;;1.83;0.95;;;;;;;5.16;100.00;99925.97;5004422;28;20146;-80
2023/01/16 12:32:50;;;;;;;1.95;0.70;;;;;;;5.12;100.00;99924.94;5005568;28;20088;-80
2023/01/16 12:35:32;;;;;;;2.65;0.82;;;;;;;5.08;100.00;99925.63;5007222;28;20115;-80
2023/01/16 12:38:13;;;;;;;1.95;0.85;;;;;;;5.04;100.00;99931.50;5000094;28;20045;-79
2023/01/16 12:44:22;;;;;;;3.00;1.35;;;;;;;4.99;100.00;99932.97;5008472;28;20777;-80
2023/01/16 12:47:02;;;;;;;1.15;0.70;;;;;;;4.96;100.00;99933.75;5008371;28;20049;-80
2023/01/16 12:49:48;;;;;;;2.97;1.08;;;;;;;4.88;100.00;99924.00;5009422;28;20077;-80
2023/01/16 12:52:32;;;;;;;5.65;1.45;;;;;;;4.92;100.00;99929.31;5008146;28;20479;-80
2023/01/16 12:55:19;;;;;;;5.95;1.27;;;;;;;4.90;100.00;99927.50;5006177;28;20046;-81
2023/01/16 12:58:06;;;;;;;3.45;1.42;;;;;;;4.89;100.00;99933.47;5003708;28;20042;-81
2023/01/16 13:00:44;;;;;;;5.30;1.70;;;;;;;4.86;100.00;99931.66;5003733;28;21166;-80
2023/01/16 13:03:25;;;;;;;10.15;2.10;;;;;;;4.84;100.00;99933.28;5006590;28;20049;-80
2023/01/16 13:05:58;;;;;;;6.30;1.65;;;;;;;4.82;100.00;99937.47;5005540;28;20058;-81